sensor_id;sensor_type;location;lat;lon;timestamp;P1;durP1;ratioP1;P2;durP2;ratioP2
44606;SDS011;30315;46.072;14.474;2023-08-30T00:01:24;2.17;;;0.80;;
44606;SDS011;30315;46.072;14.474;2023-08-30T00:03:51;0.65;;;0.50;;
44606;SDS011;30315;46.072;14.474;2023-08-30T00:06:18;1.38;;;0.60;;
44606;SDS011;30315;46.072;14.474;2023-08-30T00:08:45;1.75;;;0.60;;
44606;SDS011;30315;46.072;14.474;2023-08-30T00:11:12;0.60;;;0.60;;
44606;SDS011;30315;46.072;14.474;2023-08-30T00:13:40;1.65;;;0.60;;
44606;SDS011;30315;46.072;14.474;2023-08-30T00:16:08;2.05;;;0.60;;
44606;SDS011;30315;46.072;14.474;2023-08-30T00:18:35;0.90;;;0.70;;
44606;SDS011;30315;46.072;14.474;2023-08-30T00:21:02;2.40;;;0.90;;
44606;SDS011;30315;46.072;14.474;2023-08-30T00:23:29;2.35;;;0.80;;
44606;SDS011;30315;46.072;14.474;2023-08-30T00:25:56;3.05;;;0.80;;
44606;SDS011;30315;46.072;14.474;2023-08-30T00:28:23;0.75;;;0.75;;
44606;SDS011;30315;46.072;14.474;2023-08-30T00:30:54;0.80;;;0.80;;
44606;SDS011;30315;46.072;14.474;2023-08-30T00:33:22;0.60;;;0.60;;
44606;SDS011;30315;46.072;14.474;2023-08-30T00:35:59;3.22;;;0.80;;
44606;SDS011;30315;46.072;14.474;2023-08-30T00:38:27;1.17;;;0.75;;
44606;SDS011;30315;46.072;14.474;2023-08-30T00:40:54;0.60;;;0.60;;
44606;SDS011;30315;46.072;14.474;2023-08-30T00:43:21;1.35;;;0.75;;
44606;SDS011;30315;46.072;14.474;2023-08-30T00:45:48;1.23;;;0.85;;
44606;SDS011;30315;46.072;14.474;2023-08-30T00:48:19;1.58;;;0.60;;
44606;SDS011;30315;46.072;14.474;2023-08-30T00:50:47;1.33;;;0.75;;
44606;SDS011;30315;46.072;14.474;2023-08-30T00:53:14;0.77;;;0.60;;
44606;SDS011;30315;46.072;14.474;2023-08-30T00:55:42;0.82;;;0.60;;
44606;SDS011;30315;46.072;14.474;2023-08-30T00:58:09;1.73;;;0.60;;
44606;SDS011;30315;46.072;14.474;2023-08-30T01:00:38;0.75;;;0.60;;
44606;SDS011;30315;46.072;14.474;2023-08-30T01:03:05;2.45;;;0.60;;
44606;SDS011;30315;46.072;14.474;2023-08-30T01:05:36;1.63;;;0.90;;
44606;SDS011;30315;46.072;14.474;2023-08-30T01:08:03;1.77;;;0.70;;
44606;SDS011;30315;46.072;14.474;2023-08-30T01:10:35;0.60;;;0.60;;
44606;SDS011;30315;46.072;14.474;2023-08-30T01:13:15;1.08;;;0.70;;
44606;SDS011;30315;46.072;14.474;2023-08-30T01:15:45;2.63;;;0.70;;
44606;SDS011;30315;46.072;14.474;2023-08-30T01:18:21;0.90;;;0.70;;
44606;SDS011;30315;46.072;14.474;2023-08-30T01:20:52;2.20;;;0.70;;
44606;SDS011;30315;46.072;14.474;2023-08-30T01:23:35;0.90;;;0.90;;
44606;SDS011;30315;46.072;14.474;2023-08-30T01:26:34;0.85;;;0.60;;
44606;SDS011;30315;46.072;14.474;2023-08-30T01:29:08;5.35;;;0.70;;
44606;SDS011;30315;46.072;14.474;2023-08-30T01:31:38;3.05;;;0.70;;
44606;SDS011;30315;46.072;14.474;2023-08-30T01:34:08;0.80;;;0.60;;
44606;SDS011;30315;46.072;14.474;2023-08-30T01:36:35;0.80;;;0.80;;
44606;SDS011;30315;46.072;14.474;2023-08-30T01:39:03;3.33;;;0.90;;
44606;SDS011;30315;46.072;14.474;2023-08-30T01:41:31;1.10;;;0.70;;
44606;SDS011;30315;46.072;14.474;2023-08-30T01:44:00;1.15;;;0.70;;
44606;SDS011;30315;46.072;14.474;2023-08-30T01:46:30;2.45;;;0.70;;
44606;SDS011;30315;46.072;14.474;2023-08-30T01:48:59;2.35;;;1.02;;
44606;SDS011;30315;46.072;14.474;2023-08-30T01:51:29;1.92;;;0.70;;
44606;SDS011;30315;46.072;14.474;2023-08-30T01:53:56;1.45;;;0.80;;
44606;SDS011;30315;46.072;14.474;2023-08-30T01:56:24;1.75;;;0.80;;
44606;SDS011;30315;46.072;14.474;2023-08-30T01:58:51;1.67;;;0.70;;
44606;SDS011;30315;46.072;14.474;2023-08-30T02:01:18;1.02;;;0.77;;
44606;SDS011;30315;46.072;14.474;2023-08-30T02:03:45;4.28;;;1.50;;
44606;SDS011;30315;46.072;14.474;2023-08-30T02:06:21;2.08;;;1.65;;
44606;SDS011;30315;46.072;14.474;2023-08-30T02:08:55;1.23;;;1.13;;
44606;SDS011;30315;46.072;14.474;2023-08-30T02:11:27;1.27;;;0.95;;
44606;SDS011;30315;46.072;14.474;2023-08-30T02:13:56;1.73;;;0.98;;
44606;SDS011;30315;46.072;14.474;2023-08-30T02:16:25;5.93;;;0.98;;
44606;SDS011;30315;46.072;14.474;2023-08-30T02:18:54;2.63;;;1.10;;
44606;SDS011;30315;46.072;14.474;2023-08-30T02:27:19;2.88;;;1.58;;
44606;SDS011;30315;46.072;14.474;2023-08-30T02:29:46;1.27;;;1.17;;
44606;SDS011;30315;46.072;14.474;2023-08-30T02:32:13;2.60;;;1.10;;
44606;SDS011;30315;46.072;14.474;2023-08-30T02:34:41;0.70;;;0.70;;
44606;SDS011;30315;46.072;14.474;2023-08-30T02:39:39;1.38;;;1.00;;
44606;SDS011;30315;46.072;14.474;2023-08-30T02:42:06;1.02;;;0.80;;
44606;SDS011;30315;46.072;14.474;2023-08-30T02:44:33;2.20;;;0.82;;
44606;SDS011;30315;46.072;14.474;2023-08-30T02:47:00;0.80;;;0.80;;
44606;SDS011;30315;46.072;14.474;2023-08-30T02:49:27;0.60;;;0.60;;
44606;SDS011;30315;46.072;14.474;2023-08-30T02:51:55;2.13;;;0.73;;
44606;SDS011;30315;46.072;14.474;2023-08-30T02:54:22;0.93;;;0.70;;
44606;SDS011;30315;46.072;14.474;2023-08-30T02:56:49;0.70;;;0.70;;
44606;SDS011;30315;46.072;14.474;2023-08-30T02:59:16;1.45;;;0.75;;
44606;SDS011;30315;46.072;14.474;2023-08-30T03:01:44;1.65;;;0.70;;
44606;SDS011;30315;46.072;14.474;2023-08-30T03:04:14;0.82;;;0.77;;
44606;SDS011;30315;46.072;14.474;2023-08-30T03:06:40;1.50;;;1.08;;
44606;SDS011;30315;46.072;14.474;2023-08-30T03:09:07;0.82;;;0.82;;
44606;SDS011;30315;46.072;14.474;2023-08-30T03:11:36;0.77;;;0.77;;
44606;SDS011;30315;46.072;14.474;2023-08-30T03:14:03;1.63;;;0.93;;
44606;SDS011;30315;46.072;14.474;2023-08-30T03:16:30;1.00;;;0.90;;
44606;SDS011;30315;46.072;14.474;2023-08-30T03:18:57;0.73;;;0.70;;
44606;SDS011;30315;46.072;14.474;2023-08-30T03:21:24;1.00;;;1.00;;
44606;SDS011;30315;46.072;14.474;2023-08-30T03:23:51;1.63;;;0.88;;
44606;SDS011;30315;46.072;14.474;2023-08-30T03:26:18;2.45;;;0.70;;
44606;SDS011;30315;46.072;14.474;2023-08-30T03:28:45;0.80;;;0.80;;
44606;SDS011;30315;46.072;14.474;2023-08-30T03:31:13;1.20;;;1.10;;
44606;SDS011;30315;46.072;14.474;2023-08-30T03:33:41;1.33;;;0.95;;
44606;SDS011;30315;46.072;14.474;2023-08-30T03:36:12;1.00;;;0.93;;
44606;SDS011;30315;46.072;14.474;2023-08-30T03:38:41;1.02;;;0.93;;
44606;SDS011;30315;46.072;14.474;2023-08-30T03:41:10;0.82;;;0.77;;
44606;SDS011;30315;46.072;14.474;2023-08-30T03:43:38;1.92;;;0.70;;
44606;SDS011;30315;46.072;14.474;2023-08-30T03:46:07;1.00;;;0.95;;
44606;SDS011;30315;46.072;14.474;2023-08-30T03:48:36;1.25;;;1.00;;
44606;SDS011;30315;46.072;14.474;2023-08-30T03:51:03;2.72;;;1.00;;
44606;SDS011;30315;46.072;14.474;2023-08-30T03:53:32;1.70;;;1.37;;
44606;SDS011;30315;46.072;14.474;2023-08-30T03:55:58;0.88;;;0.88;;
44606;SDS011;30315;46.072;14.474;2023-08-30T03:58:26;2.78;;;1.05;;
44606;SDS011;30315;46.072;14.474;2023-08-30T04:00:53;2.40;;;1.20;;
44606;SDS011;30315;46.072;14.474;2023-08-30T04:03:20;1.08;;;0.98;;
44606;SDS011;30315;46.072;14.474;2023-08-30T04:05:47;0.90;;;0.90;;
44606;SDS011;30315;46.072;14.474;2023-08-30T04:08:14;2.05;;;0.80;;
44606;SDS011;30315;46.072;14.474;2023-08-30T04:10:41;1.42;;;1.10;;
44606;SDS011;30315;46.072;14.474;2023-08-30T04:13:08;2.10;;;1.00;;
44606;SDS011;30315;46.072;14.474;2023-08-30T04:15:37;1.10;;;0.88;;
44606;SDS011;30315;46.072;14.474;2023-08-30T04:18:06;1.73;;;1.00;;
44606;SDS011;30315;46.072;14.474;2023-08-30T04:20:34;0.60;;;0.60;;
44606;SDS011;30315;46.072;14.474;2023-08-30T04:23:02;0.88;;;0.77;;
44606;SDS011;30315;46.072;14.474;2023-08-30T04:25:29;1.98;;;1.02;;
44606;SDS011;30315;46.072;14.474;2023-08-30T04:27:57;1.05;;;0.98;;
44606;SDS011;30315;46.072;14.474;2023-08-30T04:30:25;1.77;;;0.95;;
44606;SDS011;30315;46.072;14.474;2023-08-30T04:32:52;1.80;;;0.80;;
44606;SDS011;30315;46.072;14.474;2023-08-30T04:35:19;1.75;;;0.90;;
44606;SDS011;30315;46.072;14.474;2023-08-30T04:37:46;0.93;;;0.82;;
44606;SDS011;30315;46.072;14.474;2023-08-30T04:40:14;1.20;;;0.90;;
44606;SDS011;30315;46.072;14.474;2023-08-30T04:42:42;1.13;;;1.02;;
44606;SDS011;30315;46.072;14.474;2023-08-30T04:45:10;1.60;;;1.10;;
44606;SDS011;30315;46.072;14.474;2023-08-30T04:47:37;0.85;;;0.85;;
44606;SDS011;30315;46.072;14.474;2023-08-30T04:50:05;2.88;;;1.00;;
44606;SDS011;30315;46.072;14.474;2023-08-30T04:52:32;0.85;;;0.80;;
44606;SDS011;30315;46.072;14.474;2023-08-30T04:54:59;2.70;;;1.10;;
44606;SDS011;30315;46.072;14.474;2023-08-30T04:57:27;2.97;;;1.73;;
44606;SDS011;30315;46.072;14.474;2023-08-30T04:59:54;1.65;;;1.52;;
44606;SDS011;30315;46.072;14.474;2023-08-30T05:02:21;1.90;;;1.23;;
44606;SDS011;30315;46.072;14.474;2023-08-30T05:05:05;1.27;;;1.17;;
44606;SDS011;30315;46.072;14.474;2023-08-30T05:07:32;0.93;;;0.90;;
44606;SDS011;30315;46.072;14.474;2023-08-30T05:09:59;1.30;;;1.20;;
44606;SDS011;30315;46.072;14.474;2023-08-30T05:12:26;1.05;;;1.00;;
44606;SDS011;30315;46.072;14.474;2023-08-30T05:14:53;0.95;;;0.90;;
44606;SDS011;30315;46.072;14.474;2023-08-30T05:17:23;1.73;;;1.20;;
44606;SDS011;30315;46.072;14.474;2023-08-30T05:19:50;1.42;;;1.08;;
44606;SDS011;30315;46.072;14.474;2023-08-30T05:22:17;0.98;;;0.93;;
44606;SDS011;30315;46.072;14.474;2023-08-30T05:24:44;2.75;;;1.15;;
44606;SDS011;30315;46.072;14.474;2023-08-30T05:27:11;1.33;;;1.00;;
44606;SDS011;30315;46.072;14.474;2023-08-30T05:29:39;0.80;;;0.80;;
44606;SDS011;30315;46.072;14.474;2023-08-30T05:32:07;2.83;;;1.13;;
44606;SDS011;30315;46.072;14.474;2023-08-30T05:34:43;1.50;;;1.40;;
44606;SDS011;30315;46.072;14.474;2023-08-30T05:37:19;1.85;;;1.75;;
44606;SDS011;30315;46.072;14.474;2023-08-30T05:39:54;3.28;;;3.08;;
44606;SDS011;30315;46.072;14.474;2023-08-30T05:42:23;4.18;;;3.78;;
44606;SDS011;30315;46.072;14.474;2023-08-30T05:44:50;2.92;;;2.72;;
44606;SDS011;30315;46.072;14.474;2023-08-30T05:47:17;3.35;;;3.10;;
44606;SDS011;30315;46.072;14.474;2023-08-30T05:49:46;2.87;;;2.77;;
44606;SDS011;30315;46.072;14.474;2023-08-30T05:52:14;2.08;;;1.98;;
44606;SDS011;30315;46.072;14.474;2023-08-30T05:54:42;2.22;;;2.10;;
44606;SDS011;30315;46.072;14.474;2023-08-30T05:57:09;2.20;;;1.83;;
44606;SDS011;30315;46.072;14.474;2023-08-30T05:59:36;1.70;;;1.60;;
44606;SDS011;30315;46.072;14.474;2023-08-30T06:02:03;2.38;;;1.52;;
44606;SDS011;30315;46.072;14.474;2023-08-30T06:04:31;1.35;;;1.25;;
44606;SDS011;30315;46.072;14.474;2023-08-30T06:06:58;1.70;;;1.60;;
44606;SDS011;30315;46.072;14.474;2023-08-30T06:09:24;3.53;;;1.90;;
44606;SDS011;30315;46.072;14.474;2023-08-30T06:11:51;1.83;;;1.73;;
44606;SDS011;30315;46.072;14.474;2023-08-30T06:14:18;1.70;;;1.60;;
44606;SDS011;30315;46.072;14.474;2023-08-30T06:16:45;1.90;;;1.20;;
44606;SDS011;30315;46.072;14.474;2023-08-30T06:19:15;2.08;;;0.93;;
44606;SDS011;30315;46.072;14.474;2023-08-30T06:21:42;2.53;;;1.13;;
44606;SDS011;30315;46.072;14.474;2023-08-30T06:24:10;1.52;;;1.42;;
44606;SDS011;30315;46.072;14.474;2023-08-30T06:26:37;1.67;;;1.10;;
44606;SDS011;30315;46.072;14.474;2023-08-30T06:29:04;1.60;;;1.50;;
44606;SDS011;30315;46.072;14.474;2023-08-30T06:31:31;1.48;;;1.38;;
44606;SDS011;30315;46.072;14.474;2023-08-30T06:33:59;4.07;;;1.42;;
44606;SDS011;30315;46.072;14.474;2023-08-30T06:36:26;1.30;;;1.23;;
44606;SDS011;30315;46.072;14.474;2023-08-30T06:38:53;1.00;;;0.88;;
44606;SDS011;30315;46.072;14.474;2023-08-30T06:41:20;1.60;;;1.50;;
44606;SDS011;30315;46.072;14.474;2023-08-30T06:43:47;1.50;;;1.23;;
44606;SDS011;30315;46.072;14.474;2023-08-30T06:46:14;1.42;;;1.17;;
44606;SDS011;30315;46.072;14.474;2023-08-30T06:48:41;0.98;;;0.98;;
44606;SDS011;30315;46.072;14.474;2023-08-30T06:51:08;1.00;;;1.00;;
44606;SDS011;30315;46.072;14.474;2023-08-30T06:53:35;1.05;;;1.00;;
44606;SDS011;30315;46.072;14.474;2023-08-30T06:56:01;1.48;;;1.15;;
44606;SDS011;30315;46.072;14.474;2023-08-30T06:58:29;1.00;;;1.00;;
44606;SDS011;30315;46.072;14.474;2023-08-30T07:00:59;1.00;;;1.00;;
44606;SDS011;30315;46.072;14.474;2023-08-30T07:03:26;1.20;;;1.10;;
44606;SDS011;30315;46.072;14.474;2023-08-30T07:05:53;1.05;;;1.02;;
44606;SDS011;30315;46.072;14.474;2023-08-30T07:08:21;1.10;;;1.10;;
44606;SDS011;30315;46.072;14.474;2023-08-30T07:10:48;1.60;;;1.05;;
44606;SDS011;30315;46.072;14.474;2023-08-30T07:13:15;1.20;;;1.10;;
44606;SDS011;30315;46.072;14.474;2023-08-30T07:15:42;0.95;;;0.93;;
44606;SDS011;30315;46.072;14.474;2023-08-30T07:18:09;1.45;;;1.02;;
44606;SDS011;30315;46.072;14.474;2023-08-30T07:20:38;0.93;;;0.93;;
44606;SDS011;30315;46.072;14.474;2023-08-30T07:23:05;2.72;;;0.98;;
44606;SDS011;30315;46.072;14.474;2023-08-30T07:25:36;1.92;;;1.20;;
44606;SDS011;30315;46.072;14.474;2023-08-30T07:28:07;1.05;;;0.98;;
44606;SDS011;30315;46.072;14.474;2023-08-30T07:30:35;0.90;;;0.90;;
44606;SDS011;30315;46.072;14.474;2023-08-30T07:33:02;1.65;;;0.80;;
44606;SDS011;30315;46.072;14.474;2023-08-30T07:35:31;2.58;;;0.80;;
44606;SDS011;30315;46.072;14.474;2023-08-30T07:37:59;0.82;;;0.73;;
44606;SDS011;30315;46.072;14.474;2023-08-30T07:40:26;1.02;;;0.80;;
44606;SDS011;30315;46.072;14.474;2023-08-30T07:42:54;2.05;;;1.42;;
44606;SDS011;30315;46.072;14.474;2023-08-30T07:45:25;0.75;;;0.70;;
44606;SDS011;30315;46.072;14.474;2023-08-30T07:47:52;0.73;;;0.73;;
44606;SDS011;30315;46.072;14.474;2023-08-30T07:50:19;0.70;;;0.70;;
44606;SDS011;30315;46.072;14.474;2023-08-30T07:52:46;1.10;;;0.90;;
44606;SDS011;30315;46.072;14.474;2023-08-30T07:55:13;0.80;;;0.80;;
44606;SDS011;30315;46.072;14.474;2023-08-30T07:57:40;1.17;;;1.05;;
44606;SDS011;30315;46.072;14.474;2023-08-30T08:00:08;0.60;;;0.60;;
44606;SDS011;30315;46.072;14.474;2023-08-30T08:02:38;1.25;;;0.73;;
44606;SDS011;30315;46.072;14.474;2023-08-30T08:05:06;0.70;;;0.70;;
44606;SDS011;30315;46.072;14.474;2023-08-30T08:07:37;0.75;;;0.75;;
44606;SDS011;30315;46.072;14.474;2023-08-30T08:10:05;0.70;;;0.70;;
44606;SDS011;30315;46.072;14.474;2023-08-30T08:12:33;1.45;;;0.70;;
44606;SDS011;30315;46.072;14.474;2023-08-30T08:15:00;0.73;;;0.73;;
44606;SDS011;30315;46.072;14.474;2023-08-30T08:17:28;0.80;;;0.80;;
44606;SDS011;30315;46.072;14.474;2023-08-30T08:19:55;0.70;;;0.70;;
44606;SDS011;30315;46.072;14.474;2023-08-30T08:22:22;0.70;;;0.70;;
44606;SDS011;30315;46.072;14.474;2023-08-30T08:24:49;1.67;;;0.80;;
44606;SDS011;30315;46.072;14.474;2023-08-30T08:27:17;1.80;;;1.23;;
44606;SDS011;30315;46.072;14.474;2023-08-30T08:29:45;0.98;;;0.80;;
44606;SDS011;30315;46.072;14.474;2023-08-30T08:32:11;1.00;;;0.90;;
44606;SDS011;30315;46.072;14.474;2023-08-30T08:34:39;1.10;;;1.00;;
44606;SDS011;30315;46.072;14.474;2023-08-30T08:37:06;1.17;;;1.08;;
44606;SDS011;30315;46.072;14.474;2023-08-30T08:39:34;2.15;;;1.00;;
44606;SDS011;30315;46.072;14.474;2023-08-30T08:42:00;1.58;;;1.48;;
44606;SDS011;30315;46.072;14.474;2023-08-30T08:44:31;2.65;;;1.63;;
44606;SDS011;30315;46.072;14.474;2023-08-30T08:49:26;1.27;;;1.17;;
44606;SDS011;30315;46.072;14.474;2023-08-30T08:51:55;1.52;;;1.02;;
44606;SDS011;30315;46.072;14.474;2023-08-30T08:54:23;0.73;;;0.70;;
44606;SDS011;30315;46.072;14.474;2023-08-30T08:56:51;0.80;;;0.80;;
44606;SDS011;30315;46.072;14.474;2023-08-30T08:59:21;0.85;;;0.80;;
44606;SDS011;30315;46.072;14.474;2023-08-30T09:01:48;1.52;;;1.30;;
44606;SDS011;30315;46.072;14.474;2023-08-30T09:04:15;1.30;;;1.20;;
44606;SDS011;30315;46.072;14.474;2023-08-30T09:06:42;0.90;;;0.90;;
44606;SDS011;30315;46.072;14.474;2023-08-30T09:09:22;1.58;;;1.00;;
44606;SDS011;30315;46.072;14.474;2023-08-30T09:11:54;2.33;;;1.10;;
44606;SDS011;30315;46.072;14.474;2023-08-30T09:14:21;0.73;;;0.73;;
44606;SDS011;30315;46.072;14.474;2023-08-30T09:16:57;0.90;;;0.90;;
44606;SDS011;30315;46.072;14.474;2023-08-30T09:19:27;0.82;;;0.82;;
44606;SDS011;30315;46.072;14.474;2023-08-30T09:21:55;2.17;;;1.10;;
44606;SDS011;30315;46.072;14.474;2023-08-30T09:24:36;1.55;;;0.95;;
44606;SDS011;30315;46.072;14.474;2023-08-30T09:27:05;1.27;;;1.17;;
44606;SDS011;30315;46.072;14.474;2023-08-30T09:29:32;1.65;;;1.00;;
44606;SDS011;30315;46.072;14.474;2023-08-30T09:32:00;1.63;;;0.80;;
44606;SDS011;30315;46.072;14.474;2023-08-30T09:34:28;0.75;;;0.75;;
44606;SDS011;30315;46.072;14.474;2023-08-30T09:36:55;1.00;;;0.90;;
44606;SDS011;30315;46.072;14.474;2023-08-30T09:39:23;1.33;;;1.08;;
44606;SDS011;30315;46.072;14.474;2023-08-30T09:41:51;1.08;;;0.95;;
44606;SDS011;30315;46.072;14.474;2023-08-30T09:44:21;3.05;;;1.00;;
44606;SDS011;30315;46.072;14.474;2023-08-30T09:46:49;1.40;;;1.23;;
44606;SDS011;30315;46.072;14.474;2023-08-30T09:49:21;1.85;;;0.90;;
44606;SDS011;30315;46.072;14.474;2023-08-30T09:51:51;0.83;;;0.83;;
44606;SDS011;30315;46.072;14.474;2023-08-30T09:54:36;3.45;;;2.38;;
44606;SDS011;30315;46.072;14.474;2023-08-30T09:57:08;1.52;;;1.42;;
44606;SDS011;30315;46.072;14.474;2023-08-30T09:59:37;1.15;;;1.15;;
44606;SDS011;30315;46.072;14.474;2023-08-30T10:02:09;1.17;;;1.00;;
44606;SDS011;30315;46.072;14.474;2023-08-30T10:04:39;1.08;;;1.08;;
44606;SDS011;30315;46.072;14.474;2023-08-30T10:07:09;1.20;;;1.10;;
44606;SDS011;30315;46.072;14.474;2023-08-30T10:09:38;1.23;;;1.20;;
44606;SDS011;30315;46.072;14.474;2023-08-30T10:12:26;1.00;;;1.00;;
44606;SDS011;30315;46.072;14.474;2023-08-30T10:14:59;1.02;;;0.85;;
44606;SDS011;30315;46.072;14.474;2023-08-30T10:17:35;0.70;;;0.70;;
44606;SDS011;30315;46.072;14.474;2023-08-30T10:20:06;1.63;;;1.00;;
44606;SDS011;30315;46.072;14.474;2023-08-30T10:22:37;0.90;;;0.90;;
44606;SDS011;30315;46.072;14.474;2023-08-30T10:25:10;1.25;;;1.08;;
44606;SDS011;30315;46.072;14.474;2023-08-30T10:27:46;0.93;;;0.80;;
44606;SDS011;30315;46.072;14.474;2023-08-30T10:30:15;1.02;;;0.90;;
44606;SDS011;30315;46.072;14.474;2023-08-30T10:32:45;2.25;;;0.90;;
44606;SDS011;30315;46.072;14.474;2023-08-30T10:35:13;0.70;;;0.70;;
44606;SDS011;30315;46.072;14.474;2023-08-30T10:37:55;0.70;;;0.70;;
44606;SDS011;30315;46.072;14.474;2023-08-30T10:40:22;1.05;;;0.77;;
44606;SDS011;30315;46.072;14.474;2023-08-30T10:42:59;0.70;;;0.70;;
44606;SDS011;30315;46.072;14.474;2023-08-30T10:45:30;0.60;;;0.60;;
44606;SDS011;30315;46.072;14.474;2023-08-30T10:47:57;0.70;;;0.70;;
44606;SDS011;30315;46.072;14.474;2023-08-30T10:50:33;1.13;;;0.80;;
44606;SDS011;30315;46.072;14.474;2023-08-30T10:53:00;0.90;;;0.65;;
44606;SDS011;30315;46.072;14.474;2023-08-30T10:55:27;0.82;;;0.70;;
44606;SDS011;30315;46.072;14.474;2023-08-30T10:57:58;0.80;;;0.80;;
44606;SDS011;30315;46.072;14.474;2023-08-30T11:00:27;0.80;;;0.80;;
44606;SDS011;30315;46.072;14.474;2023-08-30T11:02:56;1.02;;;0.93;;
44606;SDS011;30315;46.072;14.474;2023-08-30T11:05:24;0.60;;;0.60;;
44606;SDS011;30315;46.072;14.474;2023-08-30T11:07:53;0.80;;;0.80;;
44606;SDS011;30315;46.072;14.474;2023-08-30T11:10:21;0.82;;;0.82;;
44606;SDS011;30315;46.072;14.474;2023-08-30T11:12:48;0.82;;;0.75;;
44606;SDS011;30315;46.072;14.474;2023-08-30T11:15:16;2.28;;;0.85;;
44606;SDS011;30315;46.072;14.474;2023-08-30T11:17:44;0.82;;;0.63;;
44606;SDS011;30315;46.072;14.474;2023-08-30T11:20:12;0.90;;;0.90;;
44606;SDS011;30315;46.072;14.474;2023-08-30T11:22:43;0.85;;;0.80;;
44606;SDS011;30315;46.072;14.474;2023-08-30T11:25:12;0.80;;;0.80;;
44606;SDS011;30315;46.072;14.474;2023-08-30T11:27:40;0.77;;;0.77;;
44606;SDS011;30315;46.072;14.474;2023-08-30T11:30:08;0.70;;;0.70;;
44606;SDS011;30315;46.072;14.474;2023-08-30T11:32:40;0.70;;;0.70;;
44606;SDS011;30315;46.072;14.474;2023-08-30T11:35:11;2.40;;;0.80;;
44606;SDS011;30315;46.072;14.474;2023-08-30T11:37:38;0.70;;;0.70;;
44606;SDS011;30315;46.072;14.474;2023-08-30T11:40:07;0.63;;;0.63;;
44606;SDS011;30315;46.072;14.474;2023-08-30T11:42:34;0.65;;;0.65;;
44606;SDS011;30315;46.072;14.474;2023-08-30T11:45:01;0.85;;;0.75;;
44606;SDS011;30315;46.072;14.474;2023-08-30T11:49:57;1.30;;;0.82;;
44606;SDS011;30315;46.072;14.474;2023-08-30T11:52:26;0.98;;;0.98;;
44606;SDS011;30315;46.072;14.474;2023-08-30T11:54:54;1.45;;;1.35;;
44606;SDS011;30315;46.072;14.474;2023-08-30T11:57:22;1.77;;;1.20;;
44606;SDS011;30315;46.072;14.474;2023-08-30T11:59:49;1.23;;;1.02;;
44606;SDS011;30315;46.072;14.474;2023-08-30T12:02:17;0.93;;;0.93;;
44606;SDS011;30315;46.072;14.474;2023-08-30T12:04:45;1.48;;;1.00;;
44606;SDS011;30315;46.072;14.474;2023-08-30T12:07:23;1.15;;;1.05;;
44606;SDS011;30315;46.072;14.474;2023-08-30T12:09:51;1.30;;;1.20;;
44606;SDS011;30315;46.072;14.474;2023-08-30T12:12:18;1.80;;;1.23;;
44606;SDS011;30315;46.072;14.474;2023-08-30T12:14:54;1.10;;;1.00;;
44606;SDS011;30315;46.072;14.474;2023-08-30T12:17:22;0.73;;;0.73;;
44606;SDS011;30315;46.072;14.474;2023-08-30T12:19:56;1.77;;;1.10;;
44606;SDS011;30315;46.072;14.474;2023-08-30T12:22:23;0.88;;;0.88;;
44606;SDS011;30315;46.072;14.474;2023-08-30T12:25:01;1.23;;;0.90;;
44606;SDS011;30315;46.072;14.474;2023-08-30T12:27:29;1.10;;;1.00;;
44606;SDS011;30315;46.072;14.474;2023-08-30T12:29:56;2.33;;;1.80;;
44606;SDS011;30315;46.072;14.474;2023-08-30T12:32:23;1.73;;;1.58;;
44606;SDS011;30315;46.072;14.474;2023-08-30T12:34:50;1.15;;;1.13;;
44606;SDS011;30315;46.072;14.474;2023-08-30T12:37:17;1.10;;;1.00;;
44606;SDS011;30315;46.072;14.474;2023-08-30T12:39:44;1.15;;;0.80;;
44606;SDS011;30315;46.072;14.474;2023-08-30T12:42:11;0.90;;;0.90;;
44606;SDS011;30315;46.072;14.474;2023-08-30T12:44:38;0.90;;;0.90;;
44606;SDS011;30315;46.072;14.474;2023-08-30T12:47:05;2.45;;;0.90;;
44606;SDS011;30315;46.072;14.474;2023-08-30T12:49:32;1.15;;;1.00;;
44606;SDS011;30315;46.072;14.474;2023-08-30T12:51:59;2.45;;;1.27;;
44606;SDS011;30315;46.072;14.474;2023-08-30T12:54:26;3.00;;;0.75;;
44606;SDS011;30315;46.072;14.474;2023-08-30T12:56:53;1.38;;;1.23;;
44606;SDS011;30315;46.072;14.474;2023-08-30T12:59:20;0.85;;;0.85;;
44606;SDS011;30315;46.072;14.474;2023-08-30T13:01:47;0.85;;;0.85;;
44606;SDS011;30315;46.072;14.474;2023-08-30T13:04:14;0.70;;;0.70;;
44606;SDS011;30315;46.072;14.474;2023-08-30T13:06:41;0.77;;;0.77;;
44606;SDS011;30315;46.072;14.474;2023-08-30T13:09:08;1.42;;;0.73;;
44606;SDS011;30315;46.072;14.474;2023-08-30T13:11:34;1.05;;;0.93;;
44606;SDS011;30315;46.072;14.474;2023-08-30T13:14:01;1.10;;;0.77;;
44606;SDS011;30315;46.072;14.474;2023-08-30T13:16:29;1.02;;;1.00;;
44606;SDS011;30315;46.072;14.474;2023-08-30T13:18:56;1.40;;;1.30;;
44606;SDS011;30315;46.072;14.474;2023-08-30T13:21:23;1.58;;;1.48;;
44606;SDS011;30315;46.072;14.474;2023-08-30T13:24:06;0.90;;;0.90;;
44606;SDS011;30315;46.072;14.474;2023-08-30T13:26:33;1.00;;;1.00;;
44606;SDS011;30315;46.072;14.474;2023-08-30T13:29:00;0.70;;;0.70;;
44606;SDS011;30315;46.072;14.474;2023-08-30T13:31:28;1.75;;;0.82;;
44606;SDS011;30315;46.072;14.474;2023-08-30T13:33:55;0.70;;;0.70;;
44606;SDS011;30315;46.072;14.474;2023-08-30T13:36:22;0.80;;;0.80;;
44606;SDS011;30315;46.072;14.474;2023-08-30T13:38:49;0.70;;;0.70;;
44606;SDS011;30315;46.072;14.474;2023-08-30T13:41:16;0.88;;;0.80;;
44606;SDS011;30315;46.072;14.474;2023-08-30T13:43:43;0.80;;;0.80;;
44606;SDS011;30315;46.072;14.474;2023-08-30T13:46:10;0.60;;;0.60;;
44606;SDS011;30315;46.072;14.474;2023-08-30T13:48:37;0.68;;;0.68;;
44606;SDS011;30315;46.072;14.474;2023-08-30T13:51:04;0.77;;;0.68;;
44606;SDS011;30315;46.072;14.474;2023-08-30T13:53:31;0.73;;;0.73;;
44606;SDS011;30315;46.072;14.474;2023-08-30T13:55:57;0.90;;;0.90;;
44606;SDS011;30315;46.072;14.474;2023-08-30T13:58:24;0.90;;;0.90;;
44606;SDS011;30315;46.072;14.474;2023-08-30T14:00:51;1.52;;;1.05;;
44606;SDS011;30315;46.072;14.474;2023-08-30T14:03:19;0.95;;;0.95;;
44606;SDS011;30315;46.072;14.474;2023-08-30T14:05:46;1.30;;;0.80;;
44606;SDS011;30315;46.072;14.474;2023-08-30T14:08:13;1.23;;;0.90;;
44606;SDS011;30315;46.072;14.474;2023-08-30T14:10:40;0.98;;;0.98;;
44606;SDS011;30315;46.072;14.474;2023-08-30T14:13:07;1.05;;;0.80;;
44606;SDS011;30315;46.072;14.474;2023-08-30T14:15:35;1.10;;;1.00;;
44606;SDS011;30315;46.072;14.474;2023-08-30T14:18:02;1.13;;;1.02;;
44606;SDS011;30315;46.072;14.474;2023-08-30T14:20:29;0.80;;;0.80;;
44606;SDS011;30315;46.072;14.474;2023-08-30T14:22:56;0.82;;;0.80;;
44606;SDS011;30315;46.072;14.474;2023-08-30T14:25:23;2.67;;;1.45;;
44606;SDS011;30315;46.072;14.474;2023-08-30T14:27:50;1.35;;;1.20;;
44606;SDS011;30315;46.072;14.474;2023-08-30T14:30:18;1.20;;;1.10;;
44606;SDS011;30315;46.072;14.474;2023-08-30T14:32:45;1.17;;;1.17;;
44606;SDS011;30315;46.072;14.474;2023-08-30T14:35:12;2.42;;;1.20;;
44606;SDS011;30315;46.072;14.474;2023-08-30T14:37:39;0.80;;;0.80;;
44606;SDS011;30315;46.072;14.474;2023-08-30T14:40:06;1.20;;;1.10;;
44606;SDS011;30315;46.072;14.474;2023-08-30T14:42:34;2.22;;;1.10;;
44606;SDS011;30315;46.072;14.474;2023-08-30T14:45:01;1.33;;;1.23;;
44606;SDS011;30315;46.072;14.474;2023-08-30T14:47:29;1.65;;;0.95;;
44606;SDS011;30315;46.072;14.474;2023-08-30T14:49:57;1.77;;;1.02;;
44606;SDS011;30315;46.072;14.474;2023-08-30T14:52:24;0.93;;;0.93;;
44606;SDS011;30315;46.072;14.474;2023-08-30T14:54:51;0.98;;;0.80;;